Time;durP1;ratioP1;P1;durP2;ratioP2;P2;SDS_P1;SDS_P2;PMS_P1;PMS_P2;Temp;Humidity;BMP_temperature;BMP_pressure;BME280_temperature;BME280_humidity;BME280_pressure;Samples;Min_cycle;Max_cycle;Signal;HPM_P1;HPM_P2
2022/03/24 00:00:28;;;;;;;2.20;2.10;;;;;;;;;;4956072;29;20678;-71
2022/03/24 00:02:57;;;;;;;0.00;0.00;;;;;;;;;;4956039;29;20205;-71
2022/03/24 00:05:24;;;;;;;0.00;0.00;;;;;;;;;;4956099;29;20203;-71
2022/03/24 00:07:52;;;;;;;3.30;1.60;;;;;;;;;;4956236;29;20195;-71
2022/03/24 00:10:20;;;;;;;0.00;0.00;;;;;;;;;;4956096;29;20199;-72
2022/03/24 00:12:48;;;;;;;0.10;0.10;;;;;;;;;;4955795;29;20203;-71
2022/03/24 00:15:16;;;;;;;0.00;0.00;;;;;;;;;;4955744;29;20230;-71
2022/03/24 00:17:43;;;;;;;0.00;0.00;;;;;;;;;;4956070;29;20195;-71
2022/03/24 00:20:12;;;;;;;0.50;0.50;;;;;;;;;;4956016;29;20234;-71
2022/03/24 00:22:40;;;;;;;0.10;0.10;;;;;;;;;;4955439;29;20203;-71
2022/03/24 00:25:08;;;;;;;0.13;0.13;;;;;;;;;;4955633;29;20195;-70
2022/03/24 00:27:36;;;;;;;0.00;0.00;;;;;;;;;;4955621;29;20191;-70
2022/03/24 00:30:05;;;;;;;0.10;0.10;;;;;;;;;;4955970;29;20203;-71
2022/03/24 00:32:33;;;;;;;0.00;0.00;;;;;;;;;;4955609;29;20289;-71
2022/03/24 00:35:01;;;;;;;0.07;0.07;;;;;;;;;;4955713;29;20226;-70
2022/03/24 00:37:29;;;;;;;0.00;0.00;;;;;;;;;;4955507;29;20195;-71
2022/03/24 00:40:00;;;;;;;0.57;0.53;;;;;;;;;;4954819;28;20191;-70
2022/03/24 00:42:28;;;;;;;0.00;0.00;;;;;;;;;;4955353;29;20286;-71
2022/03/24 00:44:57;;;;;;;0.00;0.00;;;;;;;;;;4955479;29;20202;-71
2022/03/24 00:47:25;;;;;;;3.50;2.73;;;;;;;;;;4955175;29;20294;-71
2022/03/24 00:49:53;;;;;;;1.70;1.20;;;;;;;;;;4955564;29;20195;-71
2022/03/24 00:52:20;;;;;;;0.00;0.00;;;;;;;;;;4955810;29;20222;-71
2022/03/24 00:54:48;;;;;;;0.00;0.00;;;;;;;;;;4954772;29;20227;-70
2022/03/24 00:57:15;;;;;;;0.00;0.00;;;;;;;;;;4955358;29;20217;-71
2022/03/24 00:59:43;;;;;;;0.00;0.00;;;;;;;;;;4955259;29;20195;-70
2022/03/24 01:02:12;;;;;;;0.00;0.00;;;;;;;;;;4955371;29;20616;-70
2022/03/24 01:04:40;;;;;;;0.00;0.00;;;;;;;;;;4954762;29;20191;-71
2022/03/24 01:07:07;;;;;;;0.00;0.00;;;;;;;;;;4955005;29;20285;-70
2022/03/24 01:09:35;;;;;;;0.47;0.47;;;;;;;;;;4955090;29;20199;-71
2022/03/24 01:12:03;;;;;;;0.00;0.00;;;;;;;;;;4954850;29;20202;-70
2022/03/24 01:14:35;;;;;;;0.00;0.00;;;;;;;;;;4954553;29;20751;-70
2022/03/24 01:17:04;;;;;;;0.00;0.00;;;;;;;;;;4954773;29;20202;-70
2022/03/24 01:19:33;;;;;;;0.00;0.00;;;;;;;;;;4955000;28;20239;-70
2022/03/24 01:22:01;;;;;;;0.00;0.00;;;;;;;;;;4954751;29;20206;-70
2022/03/24 01:24:29;;;;;;;0.30;0.30;;;;;;;;;;4954866;29;20206;-70
2022/03/24 01:26:57;;;;;;;0.20;0.20;;;;;;;;;;4954566;29;20199;-70
2022/03/24 01:29:24;;;;;;;0.00;0.00;;;;;;;;;;4954743;29;20242;-70
2022/03/24 01:31:52;;;;;;;0.00;0.00;;;;;;;;;;4954580;28;20556;-70
2022/03/24 01:34:20;;;;;;;0.00;0.00;;;;;;;;;;4954382;29;20229;-70
2022/03/24 01:36:49;;;;;;;0.00;0.00;;;;;;;;;;4954498;29;20230;-70
2022/03/24 01:39:17;;;;;;;0.00;0.00;;;;;;;;;;4954499;29;20199;-70
2022/03/24 01:41:46;;;;;;;0.00;0.00;;;;;;;;;;4954584;29;20283;-71
2022/03/24 01:44:14;;;;;;;0.00;0.00;;;;;;;;;;4954498;29;20199;-71
2022/03/24 01:46:56;;;;;;;0.20;0.20;;;;;;;;;;4954099;29;20226;-71
2022/03/24 01:49:25;;;;;;;0.40;0.40;;;;;;;;;;4954322;29;20671;-70
2022/03/24 01:51:53;;;;;;;0.00;0.00;;;;;;;;;;4953473;28;20254;-70
2022/03/24 01:54:21;;;;;;;0.00;0.00;;;;;;;;;;4954287;29;20223;-71
2022/03/24 01:56:49;;;;;;;0.00;0.00;;;;;;;;;;4954287;29;20215;-71
2022/03/24 01:59:19;;;;;;;0.00;0.00;;;;;;;;;;4954476;29;20230;-70
2022/03/24 02:01:47;;;;;;;0.00;0.00;;;;;;;;;;4954444;28;20199;-71
2022/03/24 02:04:16;;;;;;;0.33;0.33;;;;;;;;;;4954472;29;20211;-71
2022/03/24 02:06:44;;;;;;;0.00;0.00;;;;;;;;;;4953914;29;20191;-70
2022/03/24 02:09:13;;;;;;;0.00;0.00;;;;;;;;;;4954052;29;20214;-72
2022/03/24 02:11:41;;;;;;;0.00;0.00;;;;;;;;;;4954107;29;20202;-70
2022/03/24 02:14:09;;;;;;;0.10;0.10;;;;;;;;;;4954439;29;20556;-70
2022/03/24 02:16:38;;;;;;;0.00;0.00;;;;;;;;;;4954047;29;20197;-70
2022/03/24 02:19:12;;;;;;;0.00;0.00;;;;;;;;;;4954210;29;20206;-70
2022/03/24 02:21:40;;;;;;;0.00;0.00;;;;;;;;;;4953914;29;20200;-70
2022/03/24 02:24:09;;;;;;;0.00;0.00;;;;;;;;;;4954027;29;20218;-70
2022/03/24 02:26:37;;;;;;;0.00;0.00;;;;;;;;;;4953709;29;20198;-71
2022/03/24 02:29:07;;;;;;;0.00;0.00;;;;;;;;;;4954203;29;20281;-71
2022/03/24 02:31:38;;;;;;;0.00;0.00;;;;;;;;;;4953959;29;20803;-71
2022/03/24 02:36:51;;;;;;;0.00;0.00;;;;;;;;;;4953696;29;20306;-71
2022/03/24 02:39:20;;;;;;;0.00;0.00;;;;;;;;;;4954041;29;20197;-70
2022/03/24 02:41:49;;;;;;;0.00;0.00;;;;;;;;;;4954084;29;20199;-69
2022/03/24 02:44:17;;;;;;;0.00;0.00;;;;;;;;;;4954063;29;20205;-69
2022/03/24 02:46:46;;;;;;;0.00;0.00;;;;;;;;;;4953645;29;20202;-71
2022/03/24 02:49:13;;;;;;;0.40;0.40;;;;;;;;;;4953862;29;20202;-70
2022/03/24 02:51:41;;;;;;;0.10;0.10;;;;;;;;;;4953716;29;20199;-71
2022/03/24 02:54:09;;;;;;;0.10;0.10;;;;;;;;;;4953953;29;20195;-71
2022/03/24 02:56:38;;;;;;;0.27;0.27;;;;;;;;;;4953787;29;20537;-71
2022/03/24 02:59:07;;;;;;;0.00;0.00;;;;;;;;;;4953427;29;20636;-71
2022/03/24 03:01:34;;;;;;;0.00;0.00;;;;;;;;;;4953635;29;20199;-71
2022/03/24 03:04:02;;;;;;;0.00;0.00;;;;;;;;;;4955562;28;20850;-71
2022/03/24 03:06:33;;;;;;;0.00;0.00;;;;;;;;;;4957501;29;20199;-71
2022/03/24 03:09:01;;;;;;;0.00;0.00;;;;;;;;;;4957170;28;20199;-70
2022/03/24 03:11:31;;;;;;;0.00;0.00;;;;;;;;;;4957290;28;20564;-70
2022/03/24 03:14:00;;;;;;;0.00;0.00;;;;;;;;;;4957151;29;20213;-70
2022/03/24 03:16:28;;;;;;;0.00;0.00;;;;;;;;;;4956918;29;20341;-70
2022/03/24 03:18:57;;;;;;;1.70;1.60;;;;;;;;;;4956935;28;20205;-70
2022/03/24 03:21:25;;;;;;;0.00;0.00;;;;;;;;;;4957390;29;20207;-71
2022/03/24 03:23:53;;;;;;;0.00;0.00;;;;;;;;;;4956732;29;20564;-71
2022/03/24 03:26:23;;;;;;;0.00;0.00;;;;;;;;;;4956870;29;20195;-70
2022/03/24 03:28:52;;;;;;;1.93;1.93;;;;;;;;;;4956657;29;20648;-70
2022/03/24 03:31:21;;;;;;;0.00;0.00;;;;;;;;;;4956568;29;20683;-71
2022/03/24 03:33:50;;;;;;;0.87;0.83;;;;;;;;;;4956805;29;20253;-70
2022/03/24 03:36:18;;;;;;;0.17;0.17;;;;;;;;;;4956678;29;20230;-70
2022/03/24 03:38:46;;;;;;;0.00;0.00;;;;;;;;;;4956268;29;20199;-71
2022/03/24 03:41:14;;;;;;;0.00;0.00;;;;;;;;;;4956483;29;20191;-70
2022/03/24 03:43:41;;;;;;;0.00;0.00;;;;;;;;;;4956726;29;20210;-70
2022/03/24 03:46:09;;;;;;;0.20;0.20;;;;;;;;;;4956669;29;20203;-71
2022/03/24 03:48:39;;;;;;;0.00;0.00;;;;;;;;;;4956373;29;20202;-70
2022/03/24 03:51:07;;;;;;;0.00;0.00;;;;;;;;;;4956552;29;20210;-71
2022/03/24 03:53:36;;;;;;;0.57;0.57;;;;;;;;;;4956301;28;20202;-71
2022/03/24 03:56:03;;;;;;;0.10;0.10;;;;;;;;;;4956120;29;20219;-70
2022/03/24 03:58:31;;;;;;;0.50;0.50;;;;;;;;;;4955854;29;20299;-71
2022/03/24 04:00:58;;;;;;;0.00;0.00;;;;;;;;;;4956305;28;20220;-70
2022/03/24 04:03:26;;;;;;;0.93;0.93;;;;;;;;;;4956038;29;20565;-71
2022/03/24 04:05:56;;;;;;;0.13;0.13;;;;;;;;;;4956111;29;20206;-70
2022/03/24 04:08:24;;;;;;;0.00;0.00;;;;;;;;;;4955920;29;20195;-71
2022/03/24 04:10:52;;;;;;;0.00;0.00;;;;;;;;;;4955632;29;20282;-71
2022/03/24 04:13:21;;;;;;;0.00;0.00;;;;;;;;;;4955916;29;20541;-71
2022/03/24 04:15:50;;;;;;;0.00;0.00;;;;;;;;;;4955025;28;20314;-71
2022/03/24 04:18:18;;;;;;;0.00;0.00;;;;;;;;;;4955803;29;20751;-70
2022/03/24 04:20:45;;;;;;;0.00;0.00;;;;;;;;;;4955663;29;20218;-70
2022/03/24 04:23:14;;;;;;;0.00;0.00;;;;;;;;;;4955787;29;20201;-71
2022/03/24 04:25:42;;;;;;;2.77;2.27;;;;;;;;;;4955923;29;20202;-72
2022/03/24 04:28:10;;;;;;;0.00;0.00;;;;;;;;;;4955725;29;20281;-71
2022/03/24 04:30:38;;;;;;;0.00;0.00;;;;;;;;;;4955435;29;20286;-71
2022/03/24 04:33:05;;;;;;;0.00;0.00;;;;;;;;;;4955499;29;20203;-70
2022/03/24 04:35:33;;;;;;;0.63;0.63;;;;;;;;;;4955659;29;20627;-70
2022/03/24 04:38:02;;;;;;;0.83;0.83;;;;;;;;;;4955810;29;20667;-71
2022/03/24 04:40:32;;;;;;;0.00;0.00;;;;;;;;;;4955312;29;20199;-70
2022/03/24 04:43:00;;;;;;;0.00;0.00;;;;;;;;;;4955406;29;20199;-71
2022/03/24 04:45:32;;;;;;;0.87;0.87;;;;;;;;;;4955340;29;20215;-70
2022/03/24 04:48:01;;;;;;;0.00;0.00;;;;;;;;;;4955266;29;20282;-70
2022/03/24 04:50:29;;;;;;;0.00;0.00;;;;;;;;;;4955443;29;20244;-70
2022/03/24 04:52:58;;;;;;;0.00;0.00;;;;;;;;;;4955298;29;20207;-71
2022/03/24 04:55:25;;;;;;;0.60;0.60;;;;;;;;;;4955266;28;20266;-71
2022/03/24 04:57:54;;;;;;;0.03;0.03;;;;;;;;;;4955053;29;20321;-70
2022/03/24 05:00:22;;;;;;;0.00;0.00;;;;;;;;;;4955023;29;20203;-71
2022/03/24 05:02:50;;;;;;;0.00;0.00;;;;;;;;;;4955091;28;20589;-71
2022/03/24 05:05:17;;;;;;;0.00;0.00;;;;;;;;;;4954920;29;20214;-71
2022/03/24 05:07:45;;;;;;;0.00;0.00;;;;;;;;;;4954941;29;20676;-71
2022/03/24 05:10:12;;;;;;;0.00;0.00;;;;;;;;;;4955104;29;20203;-71
2022/03/24 05:12:41;;;;;;;0.00;0.00;;;;;;;;;;4954693;29;20560;-71
2022/03/24 05:15:14;;;;;;;0.00;0.00;;;;;;;;;;4954693;29;20195;-71
2022/03/24 05:17:42;;;;;;;0.20;0.20;;;;;;;;;;4954703;29;20205;-71
2022/03/24 05:20:10;;;;;;;0.00;0.00;;;;;;;;;;4954970;29;20191;-70
2022/03/24 05:22:38;;;;;;;0.00;0.00;;;;;;;;;;4954422;29;20199;-70
2022/03/24 05:25:07;;;;;;;0.43;0.43;;;;;;;;;;4954739;29;20194;-71
2022/03/24 05:27:35;;;;;;;0.00;0.00;;;;;;;;;;4954429;28;20199;-71
2022/03/24 05:30:03;;;;;;;0.00;0.00;;;;;;;;;;4954920;29;20205;-72
2022/03/24 05:32:32;;;;;;;0.30;0.30;;;;;;;;;;4954716;29;20199;-72
2022/03/24 05:35:00;;;;;;;0.00;0.00;;;;;;;;;;4954582;28;20187;-70
2022/03/24 05:37:28;;;;;;;0.00;0.00;;;;;;;;;;4954605;29;20202;-70
2022/03/24 05:39:56;;;;;;;0.00;0.00;;;;;;;;;;4954491;29;20727;-70
2022/03/24 05:42:23;;;;;;;0.20;0.20;;;;;;;;;;4954336;28;20206;-70
2022/03/24 05:44:51;;;;;;;0.00;0.00;;;;;;;;;;4954362;29;20209;-70
2022/03/24 05:47:18;;;;;;;0.00;0.00;;;;;;;;;;4954557;29;20203;-71
2022/03/24 05:49:47;;;;;;;0.00;0.00;;;;;;;;;;4954414;29;20198;-71
2022/03/24 05:52:14;;;;;;;0.10;0.10;;;;;;;;;;4954333;29;20195;-71
2022/03/24 05:54:42;;;;;;;0.00;0.00;;;;;;;;;;4954081;29;20195;-71
2022/03/24 05:57:11;;;;;;;0.00;0.00;;;;;;;;;;4954188;29;20227;-69
2022/03/24 05:59:39;;;;;;;0.00;0.00;;;;;;;;;;4954439;29;20227;-71
2022/03/24 06:02:07;;;;;;;0.00;0.00;;;;;;;;;;4954113;29;20803;-70
2022/03/24 06:04:35;;;;;;;0.00;0.00;;;;;;;;;;4953946;29;20195;-70
2022/03/24 06:07:07;;;;;;;0.00;0.00;;;;;;;;;;4954228;29;20227;-70
2022/03/24 06:09:35;;;;;;;0.60;0.60;;;;;;;;;;4954423;28;20205;-70
2022/03/24 06:12:03;;;;;;;0.00;0.00;;;;;;;;;;4954323;29;20557;-70
2022/03/24 06:14:31;;;;;;;0.00;0.00;;;;;;;;;;4953846;29;20656;-70
2022/03/24 06:16:58;;;;;;;0.00;0.00;;;;;;;;;;4954250;29;20230;-70
2022/03/24 06:19:26;;;;;;;0.00;0.00;;;;;;;;;;4954051;29;20195;-70
2022/03/24 06:21:54;;;;;;;0.00;0.00;;;;;;;;;;4954064;29;20195;-71
2022/03/24 06:24:22;;;;;;;0.00;0.00;;;;;;;;;;4954146;29;20195;-69
2022/03/24 06:26:50;;;;;;;0.00;0.00;;;;;;;;;;4954054;29;20667;-70
2022/03/24 06:29:19;;;;;;;0.00;0.00;;;;;;;;;;4954079;29;20653;-71
2022/03/24 06:31:47;;;;;;;0.00;0.00;;;;;;;;;;4953894;29;20282;-70
2022/03/24 06:34:15;;;;;;;0.00;0.00;;;;;;;;;;4953979;29;20194;-71
2022/03/24 06:36:42;;;;;;;0.10;0.10;;;;;;;;;;4953781;29;20237;-70
2022/03/24 06:39:10;;;;;;;0.30;0.30;;;;;;;;;;4956145;28;20735;-70
2022/03/24 06:41:39;;;;;;;0.10;0.10;;;;;;;;;;4957607;29;20191;-70
2022/03/24 06:44:07;;;;;;;0.00;0.00;;;;;;;;;;4957499;29;20205;-71
2022/03/24 06:46:35;;;;;;;0.00;0.00;;;;;;;;;;4957412;29;20195;-71
2022/03/24 06:49:03;;;;;;;0.00;0.00;;;;;;;;;;4957388;29;20199;-71
2022/03/24 06:51:31;;;;;;;0.00;0.00;;;;;;;;;;4957660;29;20202;-70
2022/03/24 06:53:59;;;;;;;0.20;0.20;;;;;;;;;;4957365;29;20683;-70
2022/03/24 06:56:26;;;;;;;0.00;0.00;;;;;;;;;;4957516;29;20227;-70
2022/03/24 06:58:55;;;;;;;0.00;0.00;;;;;;;;;;4956839;29;20711;-70
2022/03/24 07:01:23;;;;;;;0.00;0.00;;;;;;;;;;4957135;29;20649;-70
2022/03/24 07:03:50;;;;;;;5.67;1.30;;;;;;;;;;4957130;28;20238;-71
2022/03/24 07:06:18;;;;;;;0.00;0.00;;;;;;;;;;4957443;29;20254;-70
2022/03/24 07:08:45;;;;;;;0.00;0.00;;;;;;;;;;4957261;29;20199;-70
2022/03/24 07:11:13;;;;;;;0.10;0.10;;;;;;;;;;4957113;29;20555;-70
2022/03/24 07:13:41;;;;;;;0.53;0.53;;;;;;;;;;4957044;29;20199;-70
2022/03/24 07:16:10;;;;;;;0.00;0.00;;;;;;;;;;4956908;28;20227;-70
2022/03/24 07:18:37;;;;;;;0.00;0.00;;;;;;;;;;4957040;29;20318;-70
2022/03/24 07:21:06;;;;;;;0.73;0.73;;;;;;;;;;4956882;29;20235;-70
2022/03/24 07:23:34;;;;;;;0.10;0.10;;;;;;;;;;4956864;28;20201;-71
2022/03/24 07:26:01;;;;;;;0.20;0.20;;;;;;;;;;4956826;29;20203;-71
2022/03/24 07:28:29;;;;;;;2.83;2.63;;;;;;;;;;4956675;29;20195;-71
2022/03/24 07:30:57;;;;;;;0.13;0.13;;;;;;;;;;4956868;28;20195;-71
2022/03/24 07:33:26;;;;;;;1.77;1.57;;;;;;;;;;4956798;29;20206;-71
2022/03/24 07:35:54;;;;;;;0.30;0.30;;;;;;;;;;4956634;29;20285;-71
2022/03/24 07:38:22;;;;;;;0.37;0.37;;;;;;;;;;4956672;29;20199;-71
2022/03/24 07:40:49;;;;;;;1.47;1.40;;;;;;;;;;4956407;29;20297;-75
2022/03/24 07:43:17;;;;;;;0.10;0.10;;;;;;;;;;4956442;29;20191;-69
2022/03/24 07:45:44;;;;;;;2.47;2.13;;;;;;;;;;4956720;29;20613;-71
2022/03/24 07:48:13;;;;;;;0.10;0.10;;;;;;;;;;4956290;29;20554;-71
2022/03/24 07:50:43;;;;;;;0.47;0.47;;;;;;;;;;4956211;28;20195;-71
2022/03/24 07:53:18;;;;;;;0.10;0.10;;;;;;;;;;4956230;29;20654;-71
2022/03/24 07:55:46;;;;;;;1.60;0.87;;;;;;;;;;4956257;29;20289;-70
2022/03/24 07:58:15;;;;;;;0.63;0.63;;;;;;;;;;4955928;29;20235;-70
2022/03/24 08:00:43;;;;;;;0.00;0.00;;;;;;;;;;4956006;29;20290;-70
2022/03/24 08:03:11;;;;;;;0.00;0.00;;;;;;;;;;4956276;29;20270;-70
2022/03/24 08:05:39;;;;;;;0.00;0.00;;;;;;;;;;4956388;29;20199;-68
2022/03/24 08:08:10;;;;;;;0.40;0.30;;;;;;;;;;4956053;29;20197;-68
2022/03/24 08:10:41;;;;;;;0.90;0.83;;;;;;;;;;4956016;29;20278;-69
2022/03/24 08:13:09;;;;;;;4.83;3.03;;;;;;;;;;4956034;29;20199;-69
2022/03/24 08:15:37;;;;;;;0.27;0.27;;;;;;;;;;4956005;28;20203;-69
2022/03/24 08:18:05;;;;;;;1.80;1.70;;;;;;;;;;4955954;29;20688;-68
2022/03/24 08:20:33;;;;;;;1.43;1.33;;;;;;;;;;4955595;29;20206;-69
2022/03/24 08:23:01;;;;;;;3.63;3.33;;;;;;;;;;4956039;29;20203;-70
2022/03/24 08:25:30;;;;;;;0.50;0.50;;;;;;;;;;4955814;29;20210;-70
2022/03/24 08:27:58;;;;;;;0.23;0.23;;;;;;;;;;4955915;29;20195;-70
2022/03/24 08:30:26;;;;;;;0.10;0.10;;;;;;;;;;4955693;29;20210;-70
2022/03/24 08:32:54;;;;;;;1.27;1.27;;;;;;;;;;4955527;29;20251;-71
2022/03/24 08:35:22;;;;;;;5.93;5.15;;;;;;;;;;4955561;28;20203;-70
2022/03/24 08:37:49;;;;;;;3.35;3.15;;;;;;;;;;4955394;29;20240;-70
2022/03/24 08:40:17;;;;;;;1.27;1.17;;;;;;;;;;4955496;29;20671;-70
2022/03/24 08:42:46;;;;;;;0.20;0.20;;;;;;;;;;4955113;29;20195;-70
2022/03/24 08:45:15;;;;;;;0.98;0.93;;;;;;;;;;4955360;29;20199;-71
2022/03/24 08:47:43;;;;;;;1.70;1.60;;;;;;;;;;4955135;29;20198;-71
2022/03/24 08:50:12;;;;;;;0.70;0.70;;;;;;;;;;4955188;29;20230;-71
2022/03/24 08:52:40;;;;;;;0.10;0.10;;;;;;;;;;4954926;29;20254;-71
2022/03/24 08:55:08;;;;;;;2.55;2.40;;;;;;;;;;4955485;29;20195;-71
2022/03/24 08:57:37;;;;;;;0.10;0.10;;;;;;;;;;4955027;29;20227;-71
2022/03/24 09:00:12;;;;;;;0.17;0.17;;;;;;;;;;4955030;29;20199;-71
2022/03/24 09:02:40;;;;;;;3.80;3.45;;;;;;;;;;4954336;28;20214;-71
2022/03/24 09:05:09;;;;;;;5.88;3.13;;;;;;;;;;4954987;29;20542;-71
2022/03/24 09:07:36;;;;;;;1.27;0.55;;;;;;;;;;4955124;28;20676;-71
2022/03/24 09:10:06;;;;;;;0.80;0.80;;;;;;;;;;4955216;29;20236;-71
2022/03/24 09:12:35;;;;;;;0.47;0.47;;;;;;;;;;4954674;29;20191;-71
2022/03/24 09:15:05;;;;;;;2.35;2.20;;;;;;;;;;4955103;29;20203;-71
2022/03/24 09:17:34;;;;;;;1.45;1.40;;;;;;;;;;4954830;29;20278;-71
2022/03/24 09:20:02;;;;;;;1.55;1.45;;;;;;;;;;4954884;29;20675;-71
2022/03/24 09:22:31;;;;;;;1.60;1.30;;;;;;;;;;4954766;29;20199;-71
2022/03/24 09:24:59;;;;;;;2.05;1.95;;;;;;;;;;4954668;29;20205;-70
2022/03/24 09:27:26;;;;;;;0.28;0.28;;;;;;;;;;4954684;29;20263;-70
2022/03/24 09:29:54;;;;;;;2.45;1.27;;;;;;;;;;4955029;29;20201;-71
2022/03/24 09:32:22;;;;;;;0.10;0.10;;;;;;;;;;4954520;28;20195;-70
2022/03/24 09:34:50;;;;;;;2.40;1.40;;;;;;;;;;4954391;29;20559;-71
2022/03/24 09:37:18;;;;;;;1.85;1.55;;;;;;;;;;4954532;29;20226;-70
2022/03/24 09:39:45;;;;;;;1.55;1.45;;;;;;;;;;4954305;29;20205;-71
2022/03/24 09:42:13;;;;;;;0.00;0.00;;;;;;;;;;4954697;29;20282;-70
2022/03/24 09:44:42;;;;;;;1.58;1.50;;;;;;;;;;4954131;29;20644;-70
2022/03/24 09:47:12;;;;;;;2.15;2.00;;;;;;;;;;4954537;29;20241;-70
2022/03/24 09:49:40;;;;;;;1.70;1.35;;;;;;;;;;4954491;29;20218;-69
2022/03/24 09:52:11;;;;;;;4.40;4.00;;;;;;;;;;4954260;29;20202;-70
2022/03/24 09:54:39;;;;;;;7.68;5.18;;;;;;;;;;4954350;28;20559;-70
2022/03/24 09:57:08;;;;;;;7.72;7.18;;;;;;;;;;4954175;29;20582;-70
2022/03/24 09:59:35;;;;;;;2.28;1.35;;;;;;;;;;4953986;29;20227;-70
2022/03/24 10:02:03;;;;;;;0.80;0.80;;;;;;;;;;4954171;29;20227;-70
2022/03/24 10:04:45;;;;;;;3.30;3.00;;;;;;;;;;4953995;29;20246;-71
2022/03/24 10:07:14;;;;;;;3.17;1.85;;;;;;;;;;4954402;29;20230;-71
2022/03/24 10:09:42;;;;;;;0.88;0.85;;;;;;;;;;4954054;29;20323;-70
2022/03/24 10:12:18;;;;;;;3.40;3.00;;;;;;;;;;4954429;28;20213;-69
2022/03/24 10:14:46;;;;;;;3.03;2.83;;;;;;;;;;4957393;29;20198;-70
2022/03/24 10:17:14;;;;;;;3.40;3.00;;;;;;;;;;4957842;28;20318;-70
2022/03/24 10:19:41;;;;;;;1.40;1.25;;;;;;;;;;4958166;29;20270;-70
2022/03/24 10:22:09;;;;;;;0.65;0.65;;;;;;;;;;4957986;29;20231;-70
2022/03/24 10:24:42;;;;;;;9.95;7.90;;;;;;;;;;4957800;29;20205;-70
2022/03/24 10:27:13;;;;;;;1.00;1.00;;;;;;;;;;4957748;29;20194;-70
2022/03/24 10:29:41;;;;;;;5.00;4.70;;;;;;;;;;4957688;29;20281;-70
2022/03/24 10:32:14;;;;;;;3.60;3.20;;;;;;;;;;4957781;29;20198;-70
2022/03/24 10:34:42;;;;;;;1.38;1.27;;;;;;;;;;4957540;29;20195;-70
2022/03/24 10:37:12;;;;;;;1.48;1.40;;;;;;;;;;4957693;29;20273;-69
2022/03/24 10:39:40;;;;;;;2.42;1.23;;;;;;;;;;4957707;29;20194;-69
2022/03/24 10:42:14;;;;;;;2.00;1.90;;;;;;;;;;4958033;29;20222;-69
2022/03/24 10:44:57;;;;;;;2.85;2.63;;;;;;;;;;4957612;29;20199;-72
2022/03/24 10:47:39;;;;;;;0.45;0.45;;;;;;;;;;4957553;28;20241;-67
2022/03/24 10:50:27;;;;;;;1.48;1.40;;;;;;;;;;4957433;28;20214;-68
2022/03/24 10:52:55;;;;;;;1.10;0.88;;;;;;;;;;4957185;29;20242;-70
2022/03/24 10:55:28;;;;;;;3.33;2.70;;;;;;;;;;4957406;28;20202;-69
2022/03/24 10:57:58;;;;;;;1.83;1.52;;;;;;;;;;4957254;29;20243;-68
2022/03/24 11:00:26;;;;;;;3.40;2.25;;;;;;;;;;4957468;28;20191;-69
2022/03/24 11:02:53;;;;;;;0.35;0.13;;;;;;;;;;4957123;29;20219;-69
2022/03/24 11:05:21;;;;;;;2.95;2.30;;;;;;;;;;4957225;29;20194;-69
2022/03/24 11:07:53;;;;;;;0.10;0.10;;;;;;;;;;4957475;29;20199;-69
2022/03/24 11:10:23;;;;;;;4.60;3.10;;;;;;;;;;4957150;29;20664;-69
2022/03/24 11:12:51;;;;;;;1.05;0.35;;;;;;;;;;4956947;29;20194;-69
2022/03/24 11:15:21;;;;;;;2.05;1.85;;;;;;;;;;4957121;28;20282;-69
2022/03/24 11:17:49;;;;;;;0.80;0.80;;;;;;;;;;4956935;29;20726;-69
2022/03/24 11:20:25;;;;;;;3.58;2.65;;;;;;;;;;4956860;29;20215;-69
2022/03/24 11:22:54;;;;;;;7.20;5.28;;;;;;;;;;4956925;28;20195;-69
2022/03/24 11:25:22;;;;;;;0.60;0.60;;;;;;;;;;4956348;28;20195;-68
2022/03/24 11:27:51;;;;;;;2.17;2.03;;;;;;;;;;4956899;29;20237;-69
2022/03/24 11:30:20;;;;;;;0.32;0.25;;;;;;;;;;4956759;29;20204;-68
2022/03/24 11:32:50;;;;;;;0.98;0.98;;;;;;;;;;4956532;29;20191;-68
2022/03/24 11:35:18;;;;;;;3.40;1.45;;;;;;;;;;4956683;29;20206;-68
2022/03/24 11:37:45;;;;;;;0.73;0.73;;;;;;;;;;4956772;28;20227;-69
2022/03/24 11:40:15;;;;;;;21.85;3.45;;;;;;;;;;4956627;29;20662;-68
2022/03/24 11:42:47;;;;;;;3.25;1.83;;;;;;;;;;4948045;29;20242;-68
2022/03/24 11:45:28;;;;;;;3.97;3.65;;;;;;;;;;4917755;29;20208;-68
2022/03/24 11:48:02;;;;;;;1.45;1.38;;;;;;;;;;4918021;29;20298;-68
2022/03/24 11:50:36;;;;;;;2.17;1.65;;;;;;;;;;4918113;29;20683;-69
2022/03/24 11:53:10;;;;;;;1.23;1.10;;;;;;;;;;4918096;29;20201;-70
2022/03/24 11:55:38;;;;;;;0.28;0.28;;;;;;;;;;4918102;29;20289;-69
2022/03/24 11:58:06;;;;;;;0.08;0.08;;;;;;;;;;4923762;29;20235;-68
2022/03/24 12:00:42;;;;;;;2.08;1.75;;;;;;;;;;4936792;29;20202;-70
2022/03/24 12:03:28;;;;;;;0.43;0.43;;;;;;;;;;4936965;29;20239;-70
2022/03/24 12:05:58;;;;;;;2.72;2.63;;;;;;;;;;4937168;29;20200;-69
2022/03/24 12:08:29;;;;;;;1.15;0.93;;;;;;;;;;4936921;29;20200;-69
2022/03/24 12:10:57;;;;;;;2.63;0.50;;;;;;;;;;4936899;29;20295;-69
2022/03/24 12:13:24;;;;;;;0.77;0.77;;;;;;;;;;4936811;29;20661;-69
2022/03/24 12:16:09;;;;;;;0.38;0.38;;;;;;;;;;4936706;29;20202;-70
2022/03/24 12:18:45;;;;;;;0.55;0.55;;;;;;;;;;4936325;29;20247;-70
2022/03/24 12:21:21;;;;;;;0.45;0.40;;;;;;;;;;4936687;29;20239;-69
2022/03/24 12:24:08;;;;;;;5.20;1.30;;;;;;;;;;4936620;29;20570;-69
2022/03/24 12:26:39;;;;;;;3.30;2.15;;;;;;;;;;4936586;29;20270;-69
2022/03/24 12:29:24;;;;;;;2.88;2.67;;;;;;;;;;4936482;29;20195;-69
2022/03/24 12:32:01;;;;;;;0.63;0.63;;;;;;;;;;4936374;29;20199;-70
2022/03/24 12:34:29;;;;;;;2.28;2.17;;;;;;;;;;4936580;29;20206;-69
2022/03/24 12:36:59;;;;;;;3.85;2.83;;;;;;;;;;4935528;29;20196;-70
2022/03/24 12:39:34;;;;;;;4.38;3.17;;;;;;;;;;4936595;29;20238;-69
2022/03/24 12:42:12;;;;;;;1.80;1.70;;;;;;;;;;4936278;29;20566;-69
2022/03/24 12:44:52;;;;;;;2.70;2.47;;;;;;;;;;4935993;29;20679;-69
2022/03/24 12:47:33;;;;;;;1.13;1.13;;;;;;;;;;4936443;29;20635;-70
2022/03/24 12:50:01;;;;;;;1.25;1.20;;;;;;;;;;4936314;29;20199;-70
2022/03/24 12:52:44;;;;;;;1.15;1.15;;;;;;;;;;4936548;29;20609;-70
2022/03/24 12:55:21;;;;;;;1.65;0.90;;;;;;;;;;4936138;29;20191;-69
2022/03/24 12:57:56;;;;;;;16.75;5.38;;;;;;;;;;4935773;29;20249;-70
2022/03/24 13:00:25;;;;;;;0.30;0.30;;;;;;;;;;4936076;29;20233;-69
2022/03/24 13:02:52;;;;;;;2.90;1.77;;;;;;;;;;4935664;29;20684;-70
2022/03/24 13:05:25;;;;;;;2.30;2.20;;;;;;;;;;4935889;29;20290;-70
2022/03/24 13:07:54;;;;;;;4.40;3.17;;;;;;;;;;4935767;29;20294;-69
2022/03/24 13:10:24;;;;;;;7.50;5.68;;;;;;;;;;4935778;29;20207;-70
2022/03/24 13:12:54;;;;;;;7.32;5.63;;;;;;;;;;4935517;29;20203;-70
2022/03/24 13:15:24;;;;;;;6.35;3.45;;;;;;;;;;4935651;29;20235;-69
2022/03/24 13:17:53;;;;;;;1.77;1.67;;;;;;;;;;4935501;29;20234;-70
2022/03/24 13:20:22;;;;;;;5.80;5.43;;;;;;;;;;4935926;29;20213;-69
2022/03/24 13:22:49;;;;;;;3.40;3.20;;;;;;;;;;4935531;29;20222;-70
2022/03/24 13:25:18;;;;;;;3.20;3.08;;;;;;;;;;4935712;29;20201;-70
2022/03/24 13:27:49;;;;;;;7.10;4.10;;;;;;;;;;4935672;29;20278;-70
2022/03/24 13:30:18;;;;;;;1.58;1.00;;;;;;;;;;4935432;29;20671;-69
2022/03/24 13:32:46;;;;;;;1.95;1.60;;;;;;;;;;4935230;29;20413;-78
2022/03/24 13:35:15;;;;;;;2.15;1.90;;;;;;;;;;4935321;29;20209;-72
2022/03/24 13:37:44;;;;;;;17.55;5.93;;;;;;;;;;4935546;29;20207;-72
2022/03/24 13:40:13;;;;;;;0.73;0.73;;;;;;;;;;4935373;29;20584;-71
2022/03/24 13:42:41;;;;;;;1.65;1.27;;;;;;;;;;4935073;29;20242;-72
2022/03/24 13:45:12;;;;;;;0.13;0.13;;;;;;;;;;4935434;29;20246;-71
2022/03/24 13:47:42;;;;;;;1.25;1.25;;;;;;;;;;4935081;29;20195;-71
2022/03/24 13:50:10;;;;;;;2.65;2.00;;;;;;;;;;4935110;29;20411;-71
2022/03/24 13:52:40;;;;;;;8.98;3.00;;;;;;;;;;4934891;29;20204;-71
2022/03/24 13:55:15;;;;;;;3.63;2.30;;;;;;;;;;4935230;29;20203;-71
2022/03/24 13:57:49;;;;;;;2.67;2.47;;;;;;;;;;4935060;29;20227;-71
2022/03/24 14:00:26;;;;;;;1.55;1.40;;;;;;;;;;4934942;29;20191;-71
2022/03/24 14:02:57;;;;;;;3.40;1.90;;;;;;;;;;4934797;29;20687;-71
2022/03/24 14:05:25;;;;;;;1.77;1.65;;;;;;;;;;4934985;29;20283;-69
2022/03/24 14:07:59;;;;;;;9.18;5.40;;;;;;;;;;4935094;29;20610;-69
2022/03/24 14:10:45;;;;;;;1.42;1.33;;;;;;;;;;4934923;29;20201;-69
2022/03/24 14:13:14;;;;;;;0.47;0.47;;;;;;;;;;4934954;29;20202;-69
2022/03/24 14:15:44;;;;;;;1.95;1.80;;;;;;;;;;4934938;29;20700;-69
2022/03/24 14:18:18;;;;;;;0.20;0.20;;;;;;;;;;4935064;29;20338;-69
2022/03/24 14:20:47;;;;;;;1.65;1.55;;;;;;;;;;4934719;29;20552;-69
2022/03/24 14:23:28;;;;;;;2.60;1.95;;;;;;;;;;4935202;29;20283;-69
2022/03/24 14:25:59;;;;;;;2.30;2.20;;;;;;;;;;4935272;29;20259;-69
2022/03/24 14:28:34;;;;;;;0.28;0.28;;;;;;;;;;4934785;29;20658;-69
2022/03/24 14:31:07;;;;;;;0.40;0.40;;;;;;;;;;4934999;29;20205;-69
2022/03/24 14:33:47;;;;;;;0.80;0.80;;;;;;;;;;4934709;29;20286;-69
2022/03/24 14:36:14;;;;;;;2.72;1.55;;;;;;;;;;4934803;29;20239;-70
2022/03/24 14:38:57;;;;;;;25.98;18.40;;;;;;;;;;4934685;29;20227;-68
2022/03/24 14:41:25;;;;;;;0.88;0.80;;;;;;;;;;4935227;29;20235;-69
2022/03/24 14:43:52;;;;;;;4.20;3.10;;;;;;;;;;4934638;29;20210;-71
2022/03/24 14:46:21;;;;;;;1.98;1.77;;;;;;;;;;4934630;29;20548;-69
2022/03/24 14:48:49;;;;;;;2.88;2.67;;;;;;;;;;4934656;29;20218;-71
2022/03/24 14:51:16;;;;;;;5.55;3.83;;;;;;;;;;4934763;29;20210;-71
2022/03/24 14:53:44;;;;;;;3.38;2.08;;;;;;;;;;4934655;29;20199;-70
2022/03/24 14:56:12;;;;;;;5.88;4.00;;;;;;;;;;4934763;29;20251;-71
2022/03/24 14:58:41;;;;;;;6.80;4.32;;;;;;;;;;4933989;29;20243;-71